Gaspe, Canada
Current Conditions -  °F | °C
As of 5:00 PM on Monday 26 Jan 2015 (Local Time) from CYGP Reporting Station
Clear Clear  
Wind Chill: -9°   Ceiling: Unl
Heat Index:   Visibility: 15mi
Dew Point: -13°   Wind: 7mph
Humidity: 47%   Direction: 300°WNW
Pressure: 30.24"   Gusts: NA
Location:  48.83°N, 64.49°W
Report Text: CYGP 262200Z 30006KT 15SM SKC M16/M25 A3024 RMK SLP244
Loading
Personal Weather Stations






























Interactive Weather Map New forecast layout! Learn more

10-Day Weather Forecast

Advertisements
Track Severe Weather on mobile